Time;durP1;ratioP1;P1;durP2;ratioP2;P2;SDS_P1;SDS_P2;PMS_P1;PMS_P2;Temp;Humidity;BMP_temperature;BMP_pressure;BME280_temperature;BME280_humidity;BME280_pressure;Samples;Min_cycle;Max_cycle;Signal;HPM_P1;HPM_P2
2024/01/24 00:01:21;;;;;;;1.80;0.50;;;5.70;99.90;;;;;;5066526;28;20529;-85
2024/01/24 00:03:48;;;;;;;1.43;0.57;;;5.60;99.90;;;;;;5066120;28;20442;-85
2024/01/24 00:06:15;;;;;;;1.67;0.80;;;5.50;99.90;;;;;;5063686;28;20543;-87
2024/01/24 00:08:43;;;;;;;1.20;0.67;;;5.30;99.90;;;;;;5049138;28;20509;-85
2024/01/24 00:11:10;;;;;;;2.03;0.93;;;5.20;99.90;;;;;;5065016;28;20537;-88
2024/01/24 00:13:38;;;;;;;2.10;0.50;;;5.10;99.90;;;;;;5065026;28;20934;-87
2024/01/24 00:16:05;;;;;;;1.03;0.50;;;5.10;99.90;;;;;;5061724;28;20563;-85
2024/01/24 00:18:32;;;;;;;3.10;1.33;;;5.10;99.90;;;;;;5047427;28;20470;-87
2024/01/24 00:20:59;;;;;;;2.67;1.87;;;5.00;99.90;;;;;;5060450;28;20464;-86
2024/01/24 00:23:26;;;;;;;2.60;0.80;;;5.00;99.90;;;;;;5058946;28;21317;-85
2024/01/24 00:25:55;;;;;;;1.47;0.60;;;5.00;99.90;;;;;;5060645;28;20490;-85
2024/01/24 00:28:26;;;;;;;4.53;0.90;;;5.00;99.90;;;;;;5064605;28;21038;-87
2024/01/24 00:30:53;;;;;;;3.37;0.70;;;4.90;99.90;;;;;;5067031;28;20527;-86
2024/01/24 00:33:21;;;;;;;2.90;0.70;;;5.00;99.90;;;;;;5065178;28;20556;-85
2024/01/24 00:35:48;;;;;;;1.07;0.57;;;4.90;99.90;;;;;;5057554;28;21372;-86
2024/01/24 00:38:16;;;;;;;1.47;0.50;;;4.90;99.90;;;;;;5059183;28;20781;-86
2024/01/24 00:40:43;;;;;;;4.10;0.93;;;4.90;99.90;;;;;;5060182;28;21073;-86
2024/01/24 00:43:12;;;;;;;3.33;0.70;;;5.00;99.90;;;;;;5064256;28;20442;-86
2024/01/24 00:45:38;;;;;;;1.97;0.40;;;4.90;99.90;;;;;;5080669;28;20839;-85
2024/01/24 00:48:07;;;;;;;2.30;0.50;;;4.90;99.90;;;;;;5066641;28;21012;-86
2024/01/24 00:50:35;;;;;;;2.20;0.60;;;4.80;99.90;;;;;;5066333;28;20442;-85
2024/01/24 00:53:03;;;;;;;3.90;1.23;;;4.80;99.90;;;;;;5065828;28;20541;-86
2024/01/24 00:55:31;;;;;;;1.87;0.80;;;4.80;99.90;;;;;;5060648;28;20438;-86
2024/01/24 00:57:59;;;;;;;3.87;0.60;;;4.70;99.90;;;;;;5063368;28;20516;-86
2024/01/24 01:00:27;;;;;;;3.67;1.17;;;4.70;99.90;;;;;;5066060;28;20535;-87
2024/01/24 01:02:54;;;;;;;5.40;1.73;;;4.70;99.90;;;;;;5054780;28;20445;-86
2024/01/24 01:05:21;;;;;;;2.20;0.50;;;4.60;99.90;;;;;;5067303;28;20528;-86
2024/01/24 01:07:48;;;;;;;4.57;0.60;;;4.60;99.90;;;;;;5063628;28;20857;-85
2024/01/24 01:10:15;;;;;;;12.07;0.90;;;4.70;99.90;;;;;;5061124;28;20445;-87
2024/01/24 01:12:42;;;;;;;1.67;0.40;;;4.70;99.90;;;;;;5059398;28;20523;-87
2024/01/24 01:15:09;;;;;;;0.87;0.60;;;4.80;99.90;;;;;;5062988;28;20459;-87
2024/01/24 01:17:38;;;;;;;1.60;0.70;;;4.70;99.90;;;;;;5060903;28;20512;-86
2024/01/24 01:20:05;;;;;;;1.43;0.73;;;4.70;99.90;;;;;;5063538;28;20464;-86
2024/01/24 01:22:32;;;;;;;1.17;0.60;;;4.70;99.90;;;;;;5063172;28;20432;-85
2024/01/24 01:24:59;;;;;;;0.60;0.60;;;4.70;99.90;;;;;;5061577;28;20526;-85
2024/01/24 01:27:26;;;;;;;1.27;0.70;;;4.70;99.90;;;;;;5052950;28;20560;-85
2024/01/24 01:29:53;;;;;;;1.73;0.70;;;4.70;99.90;;;;;;5055206;28;20449;-85
2024/01/24 01:32:20;;;;;;;2.40;0.80;;;4.60;99.90;;;;;;5058930;28;20460;-85
2024/01/24 01:34:48;;;;;;;2.70;0.90;;;4.70;99.90;;;;;;5070099;28;20446;-85
2024/01/24 01:37:15;;;;;;;1.40;0.50;;;4.80;99.90;;;;;;5062606;28;20450;-86
2024/01/24 01:39:42;;;;;;;2.37;0.57;;;4.80;99.90;;;;;;5067074;28;20981;-85
2024/01/24 01:42:09;;;;;;;2.07;0.87;;;4.80;99.90;;;;;;5073614;28;20463;-84
2024/01/24 01:44:43;;;;;;;3.93;0.90;;;4.90;99.90;;;;;;5079992;28;20482;-84
2024/01/24 01:47:10;;;;;;;1.77;0.60;;;5.00;99.90;;;;;;5063939;28;20481;-86
2024/01/24 01:49:38;;;;;;;6.83;0.93;;;5.00;99.90;;;;;;5072744;28;20510;-85
2024/01/24 01:52:07;;;;;;;3.73;0.70;;;5.20;99.90;;;;;;5078148;28;20462;-88
2024/01/24 01:54:35;;;;;;;2.80;0.60;;;5.20;99.90;;;;;;5084008;28;20453;-85
2024/01/24 01:57:02;;;;;;;1.80;0.50;;;5.20;99.90;;;;;;5074825;28;20444;-85
2024/01/24 01:59:29;;;;;;;0.67;0.43;;;5.20;99.90;;;;;;5069586;28;20656;-86
2024/01/24 02:01:57;;;;;;;2.80;0.63;;;5.20;99.90;;;;;;5065167;28;20441;-87
2024/01/24 02:04:25;;;;;;;2.20;0.50;;;5.10;99.90;;;;;;5065084;28;20444;-87
2024/01/24 02:06:53;;;;;;;0.80;0.30;;;5.10;99.90;;;;;;5067538;28;20476;-87
2024/01/24 02:09:21;;;;;;;6.77;2.33;;;5.10;99.90;;;;;;5067458;28;20570;-86
2024/01/24 02:11:48;;;;;;;1.40;0.60;;;5.10;99.90;;;;;;5069723;28;20450;-86
2024/01/24 02:14:15;;;;;;;1.80;0.40;;;5.10;99.90;;;;;;5063619;28;20937;-87
2024/01/24 02:16:42;;;;;;;3.00;0.70;;;5.10;99.90;;;;;;5060904;28;20478;-86
2024/01/24 02:19:09;;;;;;;2.07;0.40;;;5.20;99.90;;;;;;5067916;28;20533;-85
2024/01/24 02:21:36;;;;;;;1.43;0.40;;;5.20;99.90;;;;;;5058247;28;20455;-85
2024/01/24 02:24:03;;;;;;;0.50;0.40;;;5.30;99.90;;;;;;5062170;28;20933;-85
2024/01/24 02:26:31;;;;;;;2.50;0.40;;;5.40;99.90;;;;;;5057231;28;20934;-86
2024/01/24 02:28:58;;;;;;;1.50;0.40;;;5.60;99.90;;;;;;5056818;28;21148;-85
2024/01/24 02:31:25;;;;;;;4.73;0.50;;;5.60;99.90;;;;;;5065533;28;20505;-86
2024/01/24 02:33:52;;;;;;;2.50;0.43;;;5.70;99.90;;;;;;5066961;28;20507;-82
2024/01/24 02:36:19;;;;;;;2.17;0.60;;;5.70;99.90;;;;;;5059977;28;20611;-82
2024/01/24 02:38:46;;;;;;;2.77;0.50;;;5.60;99.90;;;;;;5064714;28;20497;-82
2024/01/24 02:41:13;;;;;;;1.90;0.50;;;5.50;99.90;;;;;;5067508;28;20541;-81
2024/01/24 02:43:41;;;;;;;0.93;0.50;;;5.40;99.90;;;;;;5055080;28;20945;-81
2024/01/24 02:46:08;;;;;;;0.80;0.40;;;5.20;99.90;;;;;;5054598;28;20574;-81
2024/01/24 02:48:35;;;;;;;1.53;0.50;;;5.10;99.90;;;;;;5064342;28;20531;-81
2024/01/24 02:51:02;;;;;;;5.63;0.80;;;4.90;99.90;;;;;;5058187;28;20543;-82
2024/01/24 02:53:29;;;;;;;0.97;0.90;;;4.90;99.90;;;;;;5061860;28;20452;-82
2024/01/24 02:59:19;;;;;;;0.90;0.53;;;4.70;99.90;;;;;;5059935;28;20990;-80
2024/01/24 03:01:46;;;;;;;3.10;0.70;;;4.80;99.90;;;;;;5061298;28;20441;-81
2024/01/24 03:04:13;;;;;;;7.20;0.90;;;4.70;99.90;;;;;;5055038;28;20482;-79
2024/01/24 03:06:41;;;;;;;2.30;0.70;;;4.70;99.90;;;;;;5067079;28;20541;-80
2024/01/24 03:09:09;;;;;;;2.43;0.50;;;4.60;99.90;;;;;;5063879;28;20457;-80
2024/01/24 03:11:38;;;;;;;3.23;0.60;;;4.40;99.90;;;;;;5058344;28;20448;-80
2024/01/24 03:14:04;;;;;;;4.40;1.27;;;4.40;99.90;;;;;;5063631;28;20523;-81
2024/01/24 03:16:33;;;;;;;1.17;0.60;;;4.40;99.90;;;;;;5066432;28;20588;-79
2024/01/24 03:18:59;;;;;;;2.00;0.43;;;4.40;99.90;;;;;;5063465;28;20483;-80
2024/01/24 03:21:26;;;;;;;1.13;0.57;;;4.20;99.90;;;;;;5062747;28;20480;-80
2024/01/24 03:23:53;;;;;;;1.10;0.70;;;4.20;99.90;;;;;;5059222;28;20546;-82
2024/01/24 03:26:20;;;;;;;2.40;0.60;;;4.20;99.90;;;;;;5062199;28;20504;-81
2024/01/24 03:28:46;;;;;;;0.97;0.67;;;4.10;99.90;;;;;;5061068;28;20503;-80
2024/01/24 03:31:13;;;;;;;3.00;0.73;;;4.10;99.90;;;;;;5061672;28;20447;-81
2024/01/24 03:33:41;;;;;;;1.80;1.03;;;4.10;99.90;;;;;;5065040;28;20537;-82
2024/01/24 03:36:09;;;;;;;3.10;0.90;;;4.00;99.90;;;;;;5062485;28;20468;-80
2024/01/24 03:38:36;;;;;;;3.43;0.90;;;3.90;99.90;;;;;;5066161;28;20469;-82
2024/01/24 03:41:03;;;;;;;1.63;0.70;;;3.90;99.90;;;;;;5054768;28;20577;-81
2024/01/24 03:43:30;;;;;;;7.33;0.87;;;3.80;99.90;;;;;;5059214;28;20486;-81
2024/01/24 03:45:56;;;;;;;0.80;0.60;;;3.80;99.90;;;;;;5057643;28;20501;-81
2024/01/24 03:48:23;;;;;;;4.90;0.80;;;3.90;99.90;;;;;;5056187;28;20485;-80
2024/01/24 03:50:52;;;;;;;1.03;0.70;;;4.00;99.90;;;;;;5057124;28;20533;-80
2024/01/24 03:53:19;;;;;;;3.20;0.90;;;4.10;99.90;;;;;;5055538;28;20532;-82
2024/01/24 03:55:46;;;;;;;2.50;0.50;;;4.10;99.90;;;;;;5057489;28;20971;-80
2024/01/24 03:58:12;;;;;;;1.77;0.90;;;4.10;99.90;;;;;;5049630;28;20529;-81
2024/01/24 04:00:39;;;;;;;2.20;0.40;;;4.10;99.90;;;;;;5051828;28;20457;-83
2024/01/24 04:03:06;;;;;;;2.93;0.70;;;4.20;99.90;;;;;;5052874;28;21021;-81
2024/01/24 04:05:33;;;;;;;2.77;0.60;;;4.20;99.90;;;;;;5054647;28;20496;-81
2024/01/24 04:08:01;;;;;;;2.23;0.50;;;4.20;99.90;;;;;;5052094;28;20542;-82
2024/01/24 04:10:28;;;;;;;1.77;1.37;;;4.20;99.90;;;;;;5054603;28;20636;-80
2024/01/24 04:12:55;;;;;;;4.03;0.70;;;4.20;99.90;;;;;;5064367;28;20531;-83
2024/01/24 04:15:22;;;;;;;7.27;1.00;;;4.20;99.90;;;;;;5059831;28;20538;-83
2024/01/24 04:17:49;;;;;;;4.20;1.57;;;4.10;99.90;;;;;;5065315;28;20464;-80
2024/01/24 04:20:16;;;;;;;1.30;0.60;;;4.10;99.90;;;;;;5057247;28;20557;-80
2024/01/24 04:22:43;;;;;;;0.80;0.60;;;4.20;99.90;;;;;;5056659;28;20478;-83
2024/01/24 04:25:12;;;;;;;1.03;0.67;;;4.10;99.90;;;;;;5069905;28;20457;-81
2024/01/24 04:27:39;;;;;;;1.40;0.67;;;4.00;99.90;;;;;;5067971;28;20532;-80
2024/01/24 04:30:08;;;;;;;6.23;0.70;;;3.90;99.90;;;;;;5062657;28;20490;-80
2024/01/24 04:32:35;;;;;;;1.60;0.57;;;3.80;99.90;;;;;;5052149;28;20461;-81
2024/01/24 04:35:02;;;;;;;2.00;1.03;;;3.80;99.90;;;;;;5058493;28;20477;-80
2024/01/24 04:37:29;;;;;;;1.50;0.90;;;3.80;99.90;;;;;;5068944;28;20545;-82
2024/01/24 04:39:56;;;;;;;2.00;0.50;;;3.90;99.90;;;;;;5064278;28;20485;-80
2024/01/24 04:42:24;;;;;;;2.13;0.70;;;3.90;99.90;;;;;;5065740;28;20554;-80
2024/01/24 04:44:51;;;;;;;1.00;0.70;;;3.90;99.90;;;;;;5057685;28;20931;-81
2024/01/24 04:47:18;;;;;;;3.23;1.00;;;4.00;99.90;;;;;;5068041;28;20571;-80
2024/01/24 04:49:45;;;;;;;3.00;1.23;;;4.00;99.90;;;;;;5066239;28;20653;-81
2024/01/24 04:52:13;;;;;;;3.70;1.40;;;4.10;99.90;;;;;;5067176;28;20920;-82
2024/01/24 04:54:41;;;;;;;1.13;1.00;;;4.00;99.90;;;;;;5062353;28;20479;-82
2024/01/24 04:57:08;;;;;;;4.93;0.77;;;3.90;99.90;;;;;;5057006;28;20933;-83
2024/01/24 04:59:36;;;;;;;1.77;1.07;;;3.90;99.90;;;;;;5061770;28;20509;-82
2024/01/24 05:02:05;;;;;;;3.37;0.90;;;3.80;99.90;;;;;;5072779;28;20458;-82
2024/01/24 05:04:33;;;;;;;6.57;0.90;;;3.80;99.90;;;;;;5061821;28;20482;-83
2024/01/24 05:07:00;;;;;;;4.53;1.50;;;3.80;99.90;;;;;;5067423;28;20539;-82
2024/01/24 05:09:26;;;;;;;6.60;1.27;;;3.70;99.90;;;;;;5061453;28;20538;-81
2024/01/24 05:11:53;;;;;;;3.20;1.50;;;3.70;99.90;;;;;;5057032;28;21188;-81
2024/01/24 05:14:20;;;;;;;5.10;1.40;;;3.70;99.90;;;;;;5058727;28;21171;-82
2024/01/24 05:16:49;;;;;;;3.40;1.43;;;3.70;99.90;;;;;;5060529;28;20498;-82
2024/01/24 05:19:16;;;;;;;3.43;1.10;;;3.80;99.90;;;;;;5049085;28;20463;-81
2024/01/24 05:21:43;;;;;;;5.07;2.40;;;3.80;99.90;;;;;;5055661;28;20865;-83
2024/01/24 05:24:11;;;;;;;4.43;2.13;;;3.60;99.90;;;;;;5055383;28;20520;-81
2024/01/24 05:26:38;;;;;;;2.10;1.47;;;3.50;99.90;;;;;;5064634;28;20947;-83
2024/01/24 05:29:06;;;;;;;8.27;1.60;;;3.50;99.90;;;;;;5065544;28;20674;-82
2024/01/24 05:31:34;;;;;;;5.50;1.67;;;3.50;99.90;;;;;;5062350;28;20450;-82
2024/01/24 05:34:02;;;;;;;1.60;1.17;;;3.50;99.90;;;;;;5062855;28;20455;-82
2024/01/24 05:36:30;;;;;;;1.90;1.53;;;3.40;99.90;;;;;;5063809;28;20458;-83
2024/01/24 05:38:56;;;;;;;3.03;1.70;;;3.40;99.90;;;;;;5057045;28;20453;-82
2024/01/24 05:41:23;;;;;;;2.37;1.67;;;3.30;99.90;;;;;;5058889;28;20492;-82
2024/01/24 05:43:49;;;;;;;2.30;1.40;;;3.30;99.90;;;;;;5060991;28;20480;-81
2024/01/24 05:46:16;;;;;;;2.43;2.17;;;3.30;99.90;;;;;;5057174;28;20488;-84
2024/01/24 05:48:43;;;;;;;3.10;1.47;;;3.20;99.90;;;;;;5060677;28;21210;-85
2024/01/24 05:51:12;;;;;;;3.87;1.77;;;3.20;99.90;;;;;;5059794;28;20509;-83
2024/01/24 05:53:41;;;;;;;5.60;1.90;;;3.20;99.90;;;;;;5055915;28;21005;-83
2024/01/24 05:56:08;;;;;;;1.97;1.80;;;3.30;99.90;;;;;;5060564;28;20550;-83
2024/01/24 05:58:37;;;;;;;3.10;1.80;;;3.40;99.90;;;;;;5054515;28;20456;-83
2024/01/24 06:01:05;;;;;;;5.30;1.90;;;3.50;99.90;;;;;;5060356;28;20460;-85
2024/01/24 06:03:33;;;;;;;2.50;1.00;;;3.60;99.90;;;;;;5055573;28;20489;-83
2024/01/24 06:06:01;;;;;;;1.93;1.00;;;3.70;99.90;;;;;;5058773;28;20455;-83
2024/01/24 06:08:29;;;;;;;5.27;1.63;;;3.80;99.90;;;;;;5062949;28;20987;-83
2024/01/24 06:10:56;;;;;;;3.53;2.23;;;3.80;99.90;;;;;;5063766;28;20488;-83
2024/01/24 06:13:23;;;;;;;2.30;1.67;;;3.80;99.90;;;;;;5057229;28;20500;-83
2024/01/24 06:15:51;;;;;;;3.23;2.00;;;3.80;99.90;;;;;;5053225;28;20489;-83
2024/01/24 06:18:18;;;;;;;1.20;1.00;;;4.00;99.90;;;;;;5064016;28;20517;-84
2024/01/24 06:20:46;;;;;;;3.00;2.13;;;3.90;99.90;;;;;;5056359;28;20513;-83
2024/01/24 06:23:13;;;;;;;4.90;2.10;;;3.90;99.90;;;;;;5051582;28;20502;-85
2024/01/24 06:25:41;;;;;;;2.50;1.00;;;3.90;99.90;;;;;;5056822;28;20471;-83
2024/01/24 06:28:07;;;;;;;1.63;1.47;;;3.90;99.90;;;;;;5058542;28;20500;-83
2024/01/24 06:30:34;;;;;;;8.37;2.10;;;3.80;99.90;;;;;;5054956;28;20530;-83
2024/01/24 06:33:01;;;;;;;3.03;1.30;;;3.80;99.90;;;;;;5059235;28;20509;-83
2024/01/24 06:35:29;;;;;;;4.33;2.80;;;3.90;99.90;;;;;;5058620;28;21028;-83
2024/01/24 06:37:56;;;;;;;6.63;2.03;;;3.90;99.90;;;;;;5076870;28;20572;-82
2024/01/24 06:40:23;;;;;;;4.80;2.10;;;3.90;99.90;;;;;;5072504;28;20488;-83
2024/01/24 06:42:51;;;;;;;3.90;2.00;;;4.00;99.90;;;;;;5065422;28;20509;-83
2024/01/24 06:45:18;;;;;;;4.00;2.50;;;4.00;99.90;;;;;;5067543;28;20455;-82
2024/01/24 06:47:45;;;;;;;3.53;2.67;;;4.00;99.90;;;;;;5067700;28;20491;-81
2024/01/24 06:50:13;;;;;;;2.60;1.67;;;4.20;99.90;;;;;;5058935;28;20499;-82
2024/01/24 06:52:40;;;;;;;4.40;2.60;;;4.20;99.90;;;;;;5063800;28;20526;-82
2024/01/24 06:55:08;;;;;;;3.20;2.27;;;4.30;99.90;;;;;;5062406;28;20601;-83
2024/01/24 06:57:35;;;;;;;2.30;1.90;;;4.40;99.90;;;;;;5056483;28;21051;-83
2024/01/24 07:00:05;;;;;;;2.13;2.03;;;4.40;99.90;;;;;;5054373;28;20447;-81
2024/01/24 07:02:32;;;;;;;3.13;2.70;;;4.60;99.90;;;;;;5059126;28;21214;-85
2024/01/24 07:04:59;;;;;;;6.70;2.30;;;4.60;99.90;;;;;;5051344;28;20486;-83
2024/01/24 07:07:26;;;;;;;2.57;1.43;;;4.70;99.90;;;;;;5050839;28;20592;-82
2024/01/24 07:09:53;;;;;;;2.60;1.73;;;4.70;99.90;;;;;;5057882;28;20462;-85
2024/01/24 07:12:21;;;;;;;2.40;2.03;;;4.80;99.90;;;;;;5064321;28;20519;-86
2024/01/24 07:14:49;;;;;;;3.53;2.50;;;4.80;99.90;;;;;;5059413;28;20443;-87
2024/01/24 07:17:17;;;;;;;3.57;2.30;;;4.90;99.90;;;;;;5062210;28;20466;-88
2024/01/24 07:19:44;;;;;;;2.23;2.03;;;4.80;99.90;;;;;;5054541;28;20868;-85
2024/01/24 07:22:11;;;;;;;2.63;2.03;;;4.80;99.90;;;;;;5055268;28;20447;-87
2024/01/24 07:24:38;;;;;;;2.60;2.40;;;4.90;99.90;;;;;;5057224;28;21178;-86
2024/01/24 07:27:05;;;;;;;5.63;3.60;;;5.00;99.90;;;;;;5062810;28;20529;-86
2024/01/24 07:29:32;;;;;;;2.80;2.40;;;5.00;99.90;;;;;;5062292;28;21098;-87
2024/01/24 07:31:59;;;;;;;8.87;3.77;;;5.00;99.90;;;;;;5064118;28;20968;-87
2024/01/24 07:34:27;;;;;;;24.13;12.80;;;5.00;99.90;;;;;;5064438;28;20498;-88
2024/01/24 07:36:54;;;;;;;31.33;14.10;;;5.00;99.90;;;;;;5060123;28;20539;-86
2024/01/24 07:39:21;;;;;;;12.40;6.70;;;5.00;99.90;;;;;;5060240;28;20929;-86
2024/01/24 07:41:48;;;;;;;1.93;1.80;;;5.10;99.90;;;;;;5074535;28;20464;-83
2024/01/24 07:44:15;;;;;;;3.93;3.63;;;5.30;99.90;;;;;;5069449;28;20509;-82
2024/01/24 07:46:43;;;;;;;1.10;1.00;;;5.40;99.90;;;;;;5066532;28;20451;-87
2024/01/24 07:49:10;;;;;;;2.33;1.13;;;5.60;99.90;;;;;;5057015;28;20464;-88
2024/01/24 07:51:40;;;;;;;4.10;1.77;;;5.70;99.90;;;;;;5061394;28;20461;-86
2024/01/24 07:54:07;;;;;;;2.70;1.40;;;5.70;99.90;;;;;;5061023;28;20445;-84
2024/01/24 07:56:34;;;;;;;1.47;1.37;;;5.80;99.90;;;;;;5060455;28;20496;-83
2024/01/24 07:59:01;;;;;;;4.20;1.43;;;5.80;99.90;;;;;;5060735;28;20832;-85
2024/01/24 08:01:28;;;;;;;2.10;1.97;;;5.80;99.90;;;;;;5057155;28;20832;-84
2024/01/24 08:03:55;;;;;;;8.30;4.57;;;5.90;99.90;;;;;;5062124;28;20494;-84
2024/01/24 08:06:22;;;;;;;4.03;3.73;;;6.00;99.90;;;;;;5060095;28;21048;-85
2024/01/24 08:08:51;;;;;;;17.50;13.17;;;6.10;99.90;;;;;;5061322;28;20570;-85
2024/01/24 08:11:18;;;;;;;44.67;24.93;;;6.20;99.90;;;;;;5069968;28;20443;-84
2024/01/24 08:13:45;;;;;;;24.50;15.07;;;6.40;99.90;;;;;;5065639;28;20463;-85
2024/01/24 08:16:12;;;;;;;5.20;4.00;;;6.40;99.90;;;;;;5062924;28;20513;-84
2024/01/24 08:18:39;;;;;;;7.10;4.57;;;6.40;99.90;;;;;;5055962;28;20877;-87
2024/01/24 08:21:07;;;;;;;7.63;7.03;;;6.50;99.90;;;;;;5059515;28;20590;-86
2024/01/24 08:23:34;;;;;;;6.37;3.90;;;6.60;99.90;;;;;;5054339;28;20491;-85
2024/01/24 08:26:03;;;;;;;6.80;4.90;;;6.60;99.90;;;;;;5060355;28;20511;-84
2024/01/24 08:28:29;;;;;;;4.90;2.70;;;6.70;99.90;;;;;;5063386;28;20490;-86
2024/01/24 08:30:57;;;;;;;3.67;2.70;;;6.70;99.90;;;;;;5063287;28;20483;-88
2024/01/24 08:33:23;;;;;;;2.70;1.27;;;6.70;99.90;;;;;;5061211;28;20514;-86
2024/01/24 08:35:50;;;;;;;2.27;1.57;;;6.80;99.90;;;;;;5061102;28;20500;-84
2024/01/24 08:38:17;;;;;;;3.73;3.50;;;6.90;99.90;;;;;;5066188;28;20485;-84
2024/01/24 08:40:44;;;;;;;4.43;4.10;;;7.00;99.90;;;;;;5070147;28;20495;-85
2024/01/24 08:43:13;;;;;;;2.77;2.47;;;6.90;99.90;;;;;;5068863;28;20470;-84
2024/01/24 08:45:40;;;;;;;4.93;3.07;;;7.00;99.90;;;;;;5065987;28;20482;-83
2024/01/24 08:48:07;;;;;;;2.37;1.90;;;6.90;99.90;;;;;;5055591;28;20543;-85
2024/01/24 08:50:34;;;;;;;4.33;2.40;;;6.80;99.90;;;;;;5059936;28;20477;-84
2024/01/24 08:53:01;;;;;;;3.33;3.13;;;6.90;99.90;;;;;;5066046;28;20869;-83
2024/01/24 08:55:28;;;;;;;3.23;2.60;;;7.00;99.90;;;;;;5067911;28;20460;-85
2024/01/24 08:57:55;;;;;;;14.17;5.50;;;7.00;99.90;;;;;;5069643;28;20479;-84
2024/01/24 09:00:23;;;;;;;19.23;9.40;;;7.00;99.90;;;;;;5068936;28;20505;-85
2024/01/24 09:02:50;;;;;;;16.70;8.30;;;7.10;99.90;;;;;;5062272;28;20483;-83
2024/01/24 09:05:20;;;;;;;22.63;10.53;;;7.20;99.90;;;;;;5063221;28;20570;-85
2024/01/24 09:07:47;;;;;;;41.47;19.63;;;7.30;99.90;;;;;;5059113;28;20484;-85
2024/01/24 09:10:14;;;;;;;19.73;9.87;;;7.40;99.90;;;;;;5066478;28;20444;-84
2024/01/24 09:12:41;;;;;;;15.43;4.30;;;7.40;99.90;;;;;;5059174;28;20502;-84
2024/01/24 09:15:09;;;;;;;19.90;10.77;;;7.50;99.90;;;;;;5061381;28;20854;-84
2024/01/24 09:17:38;;;;;;;9.23;5.47;;;7.80;99.90;;;;;;5064244;28;20469;-83
2024/01/24 09:20:06;;;;;;;7.30;5.83;;;7.90;99.90;;;;;;5054637;28;20531;-83
2024/01/24 09:22:32;;;;;;;3.30;1.67;;;8.10;99.90;;;;;;5056275;28;20530;-83
2024/01/24 09:24:59;;;;;;;5.63;1.90;;;8.20;99.90;;;;;;5061632;28;20457;-84
2024/01/24 09:27:26;;;;;;;4.27;1.77;;;8.30;99.90;;;;;;5061619;28;20477;-81
2024/01/24 09:29:53;;;;;;;1.20;1.10;;;8.40;99.90;;;;;;5056221;28;20805;-83
2024/01/24 09:32:20;;;;;;;2.80;0.80;;;8.50;99.90;;;;;;5065778;28;20557;-81
2024/01/24 09:34:49;;;;;;;2.47;0.83;;;8.60;99.90;;;;;;5053987;28;21207;-81
2024/01/24 09:37:16;;;;;;;1.43;1.20;;;8.70;99.90;;;;;;5057924;28;20459;-83
2024/01/24 09:39:43;;;;;;;1.73;1.50;;;8.60;99.90;;;;;;5068868;28;20481;-85
2024/01/24 09:42:19;;;;;;;1.83;1.47;;;8.60;99.90;;;;;;5063132;28;20444;-83
2024/01/24 09:44:49;;;;;;;6.00;1.33;;;8.60;99.90;;;;;;5066108;28;20461;-81
2024/01/24 09:47:17;;;;;;;1.20;1.00;;;8.60;99.90;;;;;;5066228;28;20555;-82
2024/01/24 09:49:44;;;;;;;1.90;1.27;;;8.60;99.90;;;;;;5066975;28;21063;-81
2024/01/24 09:52:14;;;;;;;0.70;0.70;;;8.60;99.90;;;;;;5054598;28;20859;-81
2024/01/24 09:54:43;;;;;;;1.20;0.80;;;8.40;99.90;;;;;;5059944;28;20524;-80
2024/01/24 09:57:12;;;;;;;1.47;1.00;;;8.30;99.90;;;;;;5060809;28;20467;-80
2024/01/24 09:59:40;;;;;;;1.20;1.00;;;8.20;99.90;;;;;;5064180;28;20457;-80
2024/01/24 10:02:07;;;;;;;2.00;0.90;;;8.20;99.90;;;;;;5064029;28;21384;-79
2024/01/24 10:04:37;;;;;;;1.37;1.00;;;8.10;99.90;;;;;;5055430;28;20630;-80
2024/01/24 10:07:06;;;;;;;0.80;0.70;;;7.90;99.90;;;;;;5054739;28;20448;-80
2024/01/24 10:09:35;;;;;;;2.33;1.10;;;7.90;99.90;;;;;;5052380;28;20526;-80
2024/01/24 10:12:02;;;;;;;2.33;2.13;;;7.70;99.90;;;;;;5063436;28;20456;-80
2024/01/24 10:14:29;;;;;;;1.83;1.57;;;7.70;99.90;;;;;;5057123;28;21208;-79
2024/01/24 10:16:56;;;;;;;2.40;1.10;;;7.60;99.90;;;;;;5054255;28;20487;-79
2024/01/24 10:19:24;;;;;;;2.53;1.17;;;7.60;99.90;;;;;;5058418;28;20494;-81
2024/01/24 10:21:51;;;;;;;1.70;1.00;;;7.40;99.90;;;;;;5055943;28;20449;-80
2024/01/24 10:24:19;;;;;;;1.10;1.00;;;7.50;99.90;;;;;;5062286;28;20493;-80
2024/01/24 10:26:47;;;;;;;3.27;1.57;;;7.50;99.90;;;;;;5052415;28;20518;-79
2024/01/24 10:29:14;;;;;;;1.90;1.03;;;7.50;99.90;;;;;;5064465;28;20484;-80
2024/01/24 10:31:42;;;;;;;1.63;1.43;;;7.60;99.90;;;;;;5055676;28;20441;-80
2024/01/24 10:34:09;;;;;;;2.93;1.50;;;7.60;99.90;;;;;;5054829;28;20504;-79
2024/01/24 10:36:38;;;;;;;1.30;1.10;;;7.80;99.90;;;;;;5051968;28;20543;-80
2024/01/24 10:39:10;;;;;;;1.47;0.83;;;7.90;99.90;;;;;;5068170;28;20510;-79
2024/01/24 10:41:41;;;;;;;0.70;0.70;;;8.00;99.90;;;;;;5047410;28;20524;-80
2024/01/24 10:44:10;;;;;;;1.80;1.53;;;8.20;99.90;;;;;;5064974;28;20455;-79
2024/01/24 10:46:38;;;;;;;2.97;1.00;;;8.30;99.90;;;;;;5059748;28;20446;-81
2024/01/24 10:49:05;;;;;;;2.20;1.50;;;8.30;99.90;;;;;;5058799;28;20475;-79
2024/01/24 10:51:33;;;;;;;3.20;0.90;;;8.30;99.90;;;;;;5058977;28;20453;-81
2024/01/24 10:54:00;;;;;;;1.87;0.73;;;8.30;99.90;;;;;;5060835;28;20464;-81
2024/01/24 10:56:28;;;;;;;1.00;0.87;;;8.40;99.90;;;;;;5064166;28;20982;-79
2024/01/24 10:58:57;;;;;;;1.00;0.90;;;8.40;99.90;;;;;;5048300;28;20474;-79
2024/01/24 11:01:26;;;;;;;1.10;1.00;;;8.50;99.90;;;;;;5049827;28;20927;-79
2024/01/24 11:03:54;;;;;;;2.00;1.10;;;8.60;99.90;;;;;;5059878;28;20869;-80
2024/01/24 11:06:25;;;;;;;1.03;0.70;;;8.90;99.90;;;;;;5064209;28;20817;-80
2024/01/24 11:09:00;;;;;;;2.40;1.13;;;9.10;99.90;;;;;;5061303;28;20511;-80
2024/01/24 11:11:32;;;;;;;2.57;1.83;;;9.30;99.90;;;;;;5062683;28;20906;-79
2024/01/24 11:13:59;;;;;;;1.20;1.10;;;9.60;99.90;;;;;;5056554;28;20526;-79
2024/01/24 11:16:31;;;;;;;3.50;1.77;;;9.80;99.90;;;;;;5052527;28;20551;-80
2024/01/24 11:19:22;;;;;;;2.00;1.90;;;10.00;99.90;;;;;;5054397;28;20547;-79
2024/01/24 11:21:49;;;;;;;4.97;3.07;;;9.90;99.90;;;;;;5054179;28;20459;-79
2024/01/24 11:24:52;;;;;;;4.70;3.10;;;9.70;99.90;;;;;;5061885;28;20443;-79
2024/01/24 11:27:36;;;;;;;3.60;2.43;;;9.70;99.90;;;;;;5050349;28;20484;-79
2024/01/24 11:30:17;;;;;;;5.87;5.20;;;9.70;99.90;;;;;;5062111;28;20483;-81
2024/01/24 11:33:01;;;;;;;2.40;2.20;;;9.80;99.90;;;;;;5063115;28;20458;-79
2024/01/24 11:35:37;;;;;;;1.57;1.30;;;9.80;99.90;;;;;;5061864;28;20459;-80
2024/01/24 11:38:07;;;;;;;1.20;1.00;;;9.70;99.90;;;;;;5058377;28;20522;-79
2024/01/24 11:40:35;;;;;;;1.23;0.87;;;9.90;99.90;;;;;;5062246;28;20539;-80
2024/01/24 11:43:03;;;;;;;1.37;0.73;;;10.20;99.90;;;;;;5062695;28;20531;-79
2024/01/24 11:45:31;;;;;;;0.90;0.50;;;10.70;99.90;;;;;;5063780;28;20444;-79
2024/01/24 11:47:58;;;;;;;0.60;0.40;;;11.40;99.90;;;;;;5061945;28;20558;-79
2024/01/24 11:50:26;;;;;;;0.40;0.30;;;12.30;99.90;;;;;;5065555;28;20608;-79
2024/01/24 11:52:59;;;;;;;1.17;0.53;;;12.70;99.90;;;;;;5057127;28;20456;-80
2024/01/24 11:55:27;;;;;;;0.50;0.23;;;13.00;99.90;;;;;;5063057;28;20491;-80
2024/01/24 11:57:55;;;;;;;0.50;0.30;;;13.10;99.90;;;;;;5049666;28;20919;-79
2024/01/24 12:00:24;;;;;;;0.40;0.30;;;13.30;99.90;;;;;;5056191;28;21032;-79
2024/01/24 12:02:51;;;;;;;0.50;0.30;;;13.50;99.90;;;;;;5060906;28;20570;-79
2024/01/24 12:05:18;;;;;;;0.40;0.30;;;13.70;99.90;;;;;;5059734;28;20492;-79
2024/01/24 12:07:46;;;;;;;0.60;0.30;;;13.70;99.90;;;;;;5054868;28;20982;-81
2024/01/24 12:10:13;;;;;;;0.57;0.30;;;13.70;99.90;;;;;;5064045;28;20515;-79
2024/01/24 12:12:41;;;;;;;3.60;0.50;;;13.70;99.90;;;;;;5062798;28;20475;-79
2024/01/24 12:15:09;;;;;;;0.50;0.37;;;13.80;99.90;;;;;;5061186;28;20532;-79
2024/01/24 12:17:38;;;;;;;0.40;0.30;;;14.00;99.90;;;;;;5047244;28;20456;-79
2024/01/24 12:20:07;;;;;;;0.50;0.30;;;14.00;99.90;;;;;;5059669;28;20466;-78
2024/01/24 12:22:34;;;;;;;0.50;0.30;;;14.20;99.90;;;;;;5047273;28;20506;-78
2024/01/24 12:25:03;;;;;;;1.90;0.40;;;14.20;99.90;;;;;;5058890;28;20479;-79
2024/01/24 12:27:31;;;;;;;0.90;0.50;;;14.30;99.90;;;;;;5059136;28;20490;-79
2024/01/24 12:29:58;;;;;;;0.70;0.60;;;14.30;99.90;;;;;;5063420;28;20563;-79
2024/01/24 12:32:25;;;;;;;1.20;0.37;;;14.30;99.90;;;;;;5063728;28;20444;-78
2024/01/24 12:34:54;;;;;;;0.50;0.30;;;14.20;99.90;;;;;;5051482;28;20503;-79
2024/01/24 12:37:22;;;;;;;1.47;0.50;;;14.30;99.90;;;;;;5057649;28;21255;-79
2024/01/24 12:39:53;;;;;;;1.30;0.80;;;14.30;99.90;;;;;;5058744;28;20555;-78
2024/01/24 12:42:21;;;;;;;1.30;0.60;;;14.30;99.90;;;;;;5059522;28;20463;-78
2024/01/24 12:44:53;;;;;;;0.60;0.50;;;14.20;99.90;;;;;;5064012;28;20517;-79
2024/01/24 12:47:20;;;;;;;0.70;0.40;;;14.10;99.90;;;;;;5059314;28;20540;-79
2024/01/24 12:49:47;;;;;;;0.70;0.40;;;14.00;99.90;;;;;;5056615;28;20516;-80
2024/01/24 12:52:15;;;;;;;0.50;0.40;;;13.90;99.90;;;;;;5058812;28;20479;-78
2024/01/24 12:54:42;;;;;;;0.50;0.40;;;14.00;99.90;;;;;;5064554;28;20460;-79
2024/01/24 12:57:09;;;;;;;0.40;0.30;;;14.00;99.90;;;;;;5052044;28;20987;-80
2024/01/24 12:59:37;;;;;;;0.50;0.40;;;13.80;99.90;;;;;;5053491;28;20553;-79
2024/01/24 13:02:06;;;;;;;0.40;0.30;;;13.90;99.90;;;;;;5058787;28;20472;-79